createdAt,value
2016-10-21T00:00:18.404Z,56.80
2016-10-21T00:01:12.180Z,56.90
2016-10-21T00:02:14.266Z,56.90
2016-10-21T00:03:15.179Z,56.90
2016-10-21T00:04:13.224Z,56.90
2016-10-21T00:05:13.356Z,56.80
2016-10-21T00:06:13.714Z,57.00
2016-10-21T00:07:12.257Z,56.90
2016-10-21T00:08:12.831Z,56.80
2016-10-21T00:09:11.720Z,56.80
2016-10-21T00:10:14.918Z,56.90
2016-10-21T00:11:13.499Z,56.90
2016-10-21T00:12:09.555Z,is
2016-10-21T00:13:12.840Z,57.00
2016-10-21T00:14:11.867Z,56.90
2016-10-21T00:15:12.393Z,57.00
2016-10-21T00:16:12.103Z,56.90
2016-10-21T00:17:14.208Z,56.80
2016-10-21T00:18:12.628Z,56.90
2016-10-21T00:19:12.243Z,57.00
2016-10-21T00:20:12.228Z,56.80
2016-10-21T00:21:11.848Z,56.90
2016-10-21T00:22:12.269Z,56.90
2016-10-21T00:23:12.088Z,56.90
2016-10-21T00:24:14.377Z,57.00
2016-10-21T00:25:13.192Z,57.00
2016-10-21T00:26:12.262Z,57.00
2016-10-21T00:27:12.058Z,57.00
2016-10-21T00:28:12.188Z,57.00
2016-10-21T00:29:10.837Z,is
2016-10-21T00:30:13.577Z,57.10
2016-10-21T00:31:11.986Z,57.00
2016-10-21T00:32:12.384Z,57.00
2016-10-21T00:33:12.658Z,57.00
2016-10-21T00:34:12.464Z,57.40
2016-10-21T00:35:12.319Z,57.00
2016-10-21T00:36:10.323Z,is
2016-10-21T00:37:12.108Z,57.50
2016-10-21T00:38:12.658Z,57.00
2016-10-21T00:39:12.225Z,57.10
2016-10-21T00:40:13.247Z,57.00
2016-10-21T00:41:13.965Z,57.10
2016-10-21T00:42:12.755Z,57.00
2016-10-21T00:43:12.334Z,57.20
2016-10-21T00:44:11.401Z,57.00
2016-10-21T00:45:11.469Z,57.00
2016-10-21T00:46:11.447Z,57.10
2016-10-21T00:47:13.017Z,57.10
2016-10-21T00:48:13.226Z,57.10
2016-10-21T00:49:12.057Z,57.00
2016-10-21T00:50:14.788Z,57.10
2016-10-21T00:51:13.015Z,56.30
2016-10-21T00:52:11.551Z,57.10
2016-10-21T00:53:12.229Z,57.20
2016-10-21T00:54:12.867Z,57.10
2016-10-21T00:55:13.580Z,57.30
2016-10-21T00:56:12.368Z,57.30
2016-10-21T00:57:12.160Z,57.30
2016-10-21T00:58:12.856Z,57.20
2016-10-21T00:59:13.475Z,57.30
2016-10-21T01:00:12.136Z,57.10
2016-10-21T01:01:13.138Z,57.20
2016-10-21T01:02:13.057Z,57.30
2016-10-21T01:03:10.538Z,is
2016-10-21T01:04:13.897Z,57.40
2016-10-21T01:05:13.261Z,57.30
2016-10-21T01:06:15.137Z,57.30
2016-10-21T01:07:12.179Z,57.30
2016-10-21T01:08:12.904Z,57.40
2016-10-21T01:09:12.384Z,57.30
2016-10-21T01:10:12.843Z,57.40
2016-10-21T01:11:13.055Z,57.40
2016-10-21T01:12:13.017Z,57.40
2016-10-21T01:13:14.815Z,57.40
2016-10-21T01:14:11.858Z,57.30
2016-10-21T01:15:12.175Z,57.50
2016-10-21T01:16:11.841Z,57.40
2016-10-21T01:17:14.805Z,57.30
2016-10-21T01:18:12.627Z,57.50
2016-10-21T01:19:13.154Z,57.40
2016-10-21T01:20:16.511Z,is
2016-10-21T01:21:11.571Z,57.50
2016-10-21T01:22:11.645Z,57.30
2016-10-21T01:23:10.484Z,is
2016-10-21T01:24:12.361Z,57.50
2016-10-21T01:25:13.516Z,57.50
2016-10-21T01:26:12.807Z,57.50
2016-10-21T01:27:13.469Z,57.50
2016-10-21T01:28:13.316Z,57.50
2016-10-21T01:29:13.225Z,57.50
2016-10-21T01:30:11.036Z,is
2016-10-21T01:31:13.466Z,57.60
2016-10-21T01:32:12.362Z,57.40
2016-10-21T01:33:12.193Z,57.60
2016-10-21T01:34:12.329Z,57.80
2016-10-21T01:35:12.007Z,57.70
2016-10-21T01:36:15.285Z,57.80
2016-10-21T01:37:11.812Z,57.50
2016-10-21T01:38:12.620Z,57.90
2016-10-21T01:39:12.368Z,57.60
2016-10-21T01:40:14.765Z,57.80
2016-10-21T01:41:12.177Z,57.80
2016-10-21T01:42:13.649Z,57.60
2016-10-21T01:43:11.238Z,is
2016-10-21T01:44:08.767Z,is
2016-10-21T01:45:13.972Z,57.80
2016-10-21T01:46:12.280Z,57.80
2016-10-21T01:47:14.417Z,57.90
2016-10-21T01:48:12.094Z,57.90
2016-10-21T01:49:14.304Z,57.90
2016-10-21T01:50:12.157Z,57.90
2016-10-21T01:51:13.644Z,57.80
2016-10-21T01:52:12.803Z,57.90
2016-10-21T01:53:12.825Z,57.90
2016-10-21T01:54:13.633Z,57.80
2016-10-21T01:55:15.818Z,57.90
2016-10-21T01:56:13.708Z,57.90
2016-10-21T01:57:12.866Z,57.80
2016-10-21T01:58:13.488Z,58.00
2016-10-21T01:59:11.880Z,57.80
2016-10-21T02:00:13.398Z,57.80
2016-10-21T02:01:11.328Z,57.90
2016-10-21T02:02:12.314Z,57.90
2016-10-21T02:03:13.795Z,57.80
2016-10-21T02:04:11.718Z,57.80
2016-10-21T02:05:12.867Z,57.90
2016-10-21T02:06:14.329Z,57.80
2016-10-21T02:07:09.498Z,is
2016-10-21T02:08:13.515Z,58.50
2016-10-21T02:09:12.011Z,57.80
2016-10-21T02:10:13.108Z,57.90
2016-10-21T02:11:13.400Z,57.90
2016-10-21T02:12:11.020Z,is
2016-10-21T02:13:12.807Z,58.00
2016-10-21T02:14:13.084Z,57.80
2016-10-21T02:15:15.219Z,57.90
2016-10-21T02:16:12.807Z,57.90
2016-10-21T02:17:11.922Z,57.90
2016-10-21T02:18:12.205Z,57.90
2016-10-21T02:19:12.805Z,57.90
2016-10-21T02:20:13.073Z,57.90
2016-10-21T02:21:12.110Z,57.80
2016-10-21T02:22:13.662Z,58.00
2016-10-21T02:23:12.926Z,57.90
2016-10-21T02:24:12.828Z,57.80
2016-10-21T02:25:18.374Z,57.90
2016-10-21T02:26:11.587Z,57.70
2016-10-21T02:27:12.917Z,57.90
2016-10-21T02:28:12.882Z,57.90
2016-10-21T02:29:14.778Z,57.90
2016-10-21T02:30:19.198Z,57.70
2016-10-21T02:31:12.978Z,57.90
2016-10-21T02:32:13.686Z,58.00
2016-10-21T02:33:14.218Z,57.90
2016-10-21T02:34:12.147Z,57.90
2016-10-21T02:35:12.228Z,57.90
2016-10-21T02:36:13.304Z,57.80
2016-10-21T02:37:12.415Z,57.90
2016-10-21T02:38:12.770Z,57.80
2016-10-21T02:39:11.597Z,57.80
2016-10-21T02:40:11.459Z,57.80
2016-10-21T02:41:11.788Z,57.80
2016-10-21T02:42:12.625Z,58.00
2016-10-21T02:43:11.680Z,57.80
2016-10-21T02:44:12.033Z,57.80
2016-10-21T02:45:12.334Z,57.90
2016-10-21T02:46:10.304Z,is
2016-10-21T02:47:12.640Z,58.00
2016-10-21T02:48:12.491Z,58.00
2016-10-21T02:49:11.531Z,57.30
2016-10-21T02:50:13.312Z,57.90
2016-10-21T02:51:12.170Z,58.00
2016-10-21T02:52:18.091Z,57.80
2016-10-21T02:53:13.908Z,57.80
2016-10-21T02:54:11.923Z,57.90
2016-10-21T02:55:12.646Z,57.80
2016-10-21T02:56:12.571Z,58.00
2016-10-21T02:57:11.848Z,57.80
2016-10-21T02:58:11.933Z,57.90
2016-10-21T02:59:12.487Z,57.90
2016-10-21T03:00:11.989Z,57.90
2016-10-21T03:01:12.660Z,57.90
2016-10-21T03:02:12.616Z,57.90
2016-10-21T03:03:11.812Z,57.80
2016-10-21T03:04:12.686Z,57.90
2016-10-21T03:05:11.718Z,57.90
2016-10-21T03:06:13.539Z,58.00
2016-10-21T03:07:17.160Z,57.80
2016-10-21T03:08:12.999Z,57.90
2016-10-21T03:09:14.800Z,57.80
2016-10-21T03:10:12.730Z,57.90
2016-10-21T03:11:11.567Z,57.90
2016-10-21T03:12:12.030Z,57.80
2016-10-21T03:13:12.022Z,57.80
2016-10-21T03:14:12.629Z,57.90
2016-10-21T03:15:11.618Z,57.90
2016-10-21T03:16:12.165Z,57.90
2016-10-21T03:17:12.246Z,57.90
2016-10-21T03:18:11.339Z,57.80
2016-10-21T03:19:11.513Z,57.80
2016-10-21T03:20:12.017Z,57.80
2016-10-21T03:21:13.156Z,57.80
2016-10-21T03:22:12.094Z,57.80
2016-10-21T03:23:12.385Z,57.90
2016-10-21T03:24:12.662Z,57.90
2016-10-21T03:25:12.869Z,57.80
2016-10-21T03:26:13.580Z,58.00
2016-10-21T03:27:12.619Z,57.90
2016-10-21T03:28:12.192Z,57.80
2016-10-21T03:29:19.543Z,57.90
2016-10-21T03:30:13.364Z,57.90
2016-10-21T03:31:11.631Z,57.90
2016-10-21T03:32:12.203Z,57.80
2016-10-21T03:33:12.049Z,57.90
2016-10-21T03:34:11.983Z,57.80
2016-10-21T03:35:12.053Z,57.80
2016-10-21T03:36:12.831Z,57.90
2016-10-21T03:37:10.584Z,is
2016-10-21T03:38:12.460Z,57.90
2016-10-21T03:39:12.571Z,57.90
2016-10-21T03:40:10.965Z,is
2016-10-21T03:41:12.845Z,57.90
2016-10-21T03:42:12.879Z,57.90
2016-10-21T03:43:14.127Z,57.90
2016-10-21T03:44:13.817Z,58.00
2016-10-21T03:45:11.816Z,57.90
2016-10-21T03:46:11.826Z,57.90
2016-10-21T03:47:12.646Z,58.00
2016-10-21T03:48:12.214Z,57.80
2016-10-21T03:49:18.506Z,57.90
2016-10-21T03:50:12.158Z,57.80
2016-10-21T03:51:13.147Z,58.00
2016-10-21T03:52:12.771Z,57.80
2016-10-21T03:53:12.936Z,57.80
2016-10-21T03:54:12.488Z,57.80
2016-10-21T03:55:11.927Z,57.90
2016-10-21T03:56:12.898Z,57.90
2016-10-21T03:57:12.633Z,58.00
2016-10-21T03:58:17.519Z,57.80
2016-10-21T03:59:12.536Z,57.80
2016-10-21T04:00:13.232Z,57.80
2016-10-21T04:01:13.007Z,57.90
2016-10-21T04:02:12.964Z,57.90
2016-10-21T04:03:12.528Z,57.80
2016-10-21T04:04:10.398Z,is
2016-10-21T04:05:14.329Z,58.00
2016-10-21T04:06:13.349Z,58.00
2016-10-21T04:07:12.942Z,58.00
2016-10-21T04:08:10.894Z,is
2016-10-21T04:09:12.175Z,57.90
2016-10-21T04:10:12.203Z,57.90
2016-10-21T04:11:12.830Z,57.90
2016-10-21T04:12:11.860Z,57.90
2016-10-21T04:13:12.001Z,57.90
2016-10-21T04:14:13.260Z,57.90
2016-10-21T04:15:12.928Z,58.10
2016-10-21T04:16:13.552Z,58.00
2016-10-21T04:17:12.498Z,58.00
2016-10-21T04:18:12.661Z,58.10
2016-10-21T04:19:11.637Z,57.80
2016-10-21T04:20:12.933Z,57.90
2016-10-21T04:21:11.863Z,57.80
2016-10-21T04:22:12.859Z,58.00
2016-10-21T04:23:12.293Z,58.20
2016-10-21T04:24:12.874Z,58.30
2016-10-21T04:25:16.023Z,58.50
2016-10-21T04:26:11.339Z,58.30
2016-10-21T04:27:14.523Z,58.40
2016-10-21T04:28:13.477Z,58.50
2016-10-21T04:29:12.293Z,58.30
2016-10-21T04:30:12.838Z,58.50
2016-10-21T04:31:12.557Z,58.30
2016-10-21T04:32:10.568Z,is
2016-10-21T04:33:19.390Z,58.40
2016-10-21T04:34:10.065Z,is
2016-10-21T04:35:12.146Z,58.30
2016-10-21T04:36:12.141Z,58.40
2016-10-21T04:37:10.665Z,is
2016-10-21T04:38:18.155Z,58.30
2016-10-21T04:39:12.648Z,58.40
2016-10-21T04:40:12.179Z,58.30
2016-10-21T04:41:14.440Z,58.40
2016-10-21T04:42:12.219Z,58.50
2016-10-21T04:43:14.043Z,58.50
2016-10-21T04:44:11.948Z,58.50
2016-10-21T04:45:11.854Z,58.50
2016-10-21T04:46:12.424Z,58.50
2016-10-21T04:47:12.354Z,58.40
2016-10-21T04:48:12.401Z,58.30
2016-10-21T04:49:11.551Z,58.40
2016-10-21T04:50:11.606Z,58.40
2016-10-21T04:51:11.667Z,58.40
2016-10-21T04:52:12.745Z,58.50
2016-10-21T04:53:11.714Z,58.30
2016-10-21T04:54:13.399Z,58.40
2016-10-21T04:55:11.865Z,58.20
2016-10-21T04:56:12.390Z,58.40
2016-10-21T04:57:12.106Z,58.60
2016-10-21T04:58:12.009Z,58.50
2016-10-21T04:59:12.083Z,58.40
2016-10-21T05:00:12.826Z,58.50
2016-10-21T05:01:12.269Z,58.40
2016-10-21T05:02:12.224Z,58.50
2016-10-21T05:03:12.248Z,58.40
2016-10-21T05:04:13.006Z,58.20
2016-10-21T05:05:12.823Z,58.30
2016-10-21T05:06:09.655Z,is
2016-10-21T05:07:18.296Z,58.00
2016-10-21T05:08:12.817Z,58.20
2016-10-21T05:09:12.236Z,58.00
2016-10-21T05:10:13.605Z,58.00
2016-10-21T05:11:12.358Z,58.20
2016-10-21T05:12:11.508Z,58.10
2016-10-21T05:13:11.508Z,57.90
2016-10-21T05:14:09.641Z,is
2016-10-21T05:15:13.493Z,58.00
2016-10-21T05:16:11.996Z,58.10
2016-10-21T05:17:10.706Z,is
2016-10-21T05:18:12.419Z,57.80
2016-10-21T05:19:17.679Z,57.90
2016-10-21T05:20:11.712Z,58.20
2016-10-21T05:21:12.357Z,58.00
2016-10-21T05:22:11.423Z,58.10
2016-10-21T05:23:11.490Z,57.80
2016-10-21T05:24:11.611Z,57.90
2016-10-21T05:25:13.317Z,57.80
2016-10-21T05:26:09.363Z,is
2016-10-21T05:27:15.110Z,58.10
2016-10-21T05:28:12.630Z,57.80
2016-10-21T05:29:12.378Z,57.90
2016-10-21T05:30:12.200Z,57.80
2016-10-21T05:31:11.471Z,57.90
2016-10-21T05:32:12.684Z,58.10
2016-10-21T05:33:12.387Z,58.00
2016-10-21T05:34:13.246Z,58.30
2016-10-21T05:35:12.992Z,58.10
2016-10-21T05:36:12.804Z,58.30
2016-10-21T05:37:12.586Z,58.20
2016-10-21T05:38:12.313Z,58.30
2016-10-21T05:39:13.715Z,58.10
2016-10-21T05:40:11.951Z,58.20
2016-10-21T05:41:12.612Z,58.30
2016-10-21T05:42:12.811Z,58.40
2016-10-21T05:43:12.418Z,58.50
2016-10-21T05:44:10.572Z,is
2016-10-21T05:45:12.885Z,58.50
2016-10-21T05:46:12.646Z,58.40
2016-10-21T05:47:11.878Z,58.40
2016-10-21T05:48:12.267Z,58.50
2016-10-21T05:49:10.121Z,is
2016-10-21T05:50:12.650Z,58.50
2016-10-21T05:51:10.216Z,is
2016-10-21T05:52:11.512Z,58.50
2016-10-21T05:53:12.044Z,58.50
2016-10-21T05:54:12.175Z,58.50
2016-10-21T05:55:12.851Z,58.50
2016-10-21T05:56:12.660Z,58.60
2016-10-21T05:57:12.701Z,58.60
2016-10-21T05:58:18.173Z,58.60
2016-10-21T05:59:12.138Z,58.50
2016-10-21T06:00:13.084Z,58.50
2016-10-21T06:01:12.668Z,58.50
2016-10-21T06:02:11.721Z,58.40
2016-10-21T06:03:13.074Z,58.40
2016-10-21T06:04:13.560Z,58.40
2016-10-21T06:05:17.177Z,58.40
2016-10-21T06:06:12.292Z,58.50
2016-10-21T06:07:13.446Z,58.70
2016-10-21T06:08:11.513Z,58.90
2016-10-21T06:09:13.278Z,58.90
2016-10-21T06:10:14.232Z,58.90
2016-10-21T06:11:12.565Z,59.00
2016-10-21T06:12:12.179Z,58.90
2016-10-21T06:13:12.869Z,58.90
2016-10-21T06:14:12.489Z,59.00
2016-10-21T06:15:11.559Z,58.90
2016-10-21T06:16:11.595Z,58.90
2016-10-21T06:17:11.765Z,58.90
2016-10-21T06:18:11.737Z,58.80
2016-10-21T06:19:11.902Z,58.70
2016-10-21T06:20:13.569Z,58.80
2016-10-21T06:21:20.715Z,59.10
2016-10-21T06:22:14.798Z,59.00
2016-10-21T06:23:12.876Z,59.10
2016-10-21T06:24:11.889Z,58.90
2016-10-21T06:25:12.010Z,58.80
2016-10-21T06:26:10.104Z,is
2016-10-21T06:27:12.411Z,58.90
2016-10-21T06:28:10.328Z,is
2016-10-21T06:29:12.170Z,59.00
2016-10-21T06:30:13.046Z,59.30
2016-10-21T06:31:12.086Z,59.10
2016-10-21T06:32:12.993Z,59.10
2016-10-21T06:33:11.860Z,59.10
2016-10-21T06:34:12.663Z,59.00
2016-10-21T06:35:11.775Z,59.00
2016-10-21T06:36:12.231Z,59.00
2016-10-21T06:37:13.061Z,59.00
2016-10-21T06:38:12.194Z,59.10
2016-10-21T06:39:11.442Z,59.00
2016-10-21T06:40:12.010Z,58.90
2016-10-21T06:41:12.165Z,59.00
2016-10-21T06:42:09.511Z,is
2016-10-21T06:43:13.081Z,45.50
2016-10-21T06:44:12.784Z,44.30
2016-10-21T06:45:12.566Z,44.90
2016-10-21T06:46:15.747Z,is
2016-10-21T06:47:13.510Z,45.10
2016-10-21T06:48:11.475Z,46.20
2016-10-21T06:49:11.471Z,49.10
2016-10-21T06:50:11.361Z,50.00
2016-10-21T06:51:12.374Z,51.20
2016-10-21T06:52:11.988Z,51.80
2016-10-21T06:53:12.840Z,52.60
2016-10-21T06:54:11.963Z,52.50
2016-10-21T06:55:11.935Z,52.00
2016-10-21T06:56:14.878Z,52.20
2016-10-21T06:57:14.564Z,52.00
2016-10-21T06:58:13.004Z,52.00
2016-10-21T06:59:11.969Z,51.80
2016-10-21T07:00:12.876Z,51.70
2016-10-21T07:01:12.891Z,51.60
2016-10-21T07:02:12.848Z,51.70
2016-10-21T07:03:12.012Z,51.90
2016-10-21T07:04:13.127Z,52.00
2016-10-21T07:05:13.741Z,52.20
2016-10-21T07:06:11.258Z,is
2016-10-21T07:07:11.582Z,52.80
2016-10-21T07:08:11.547Z,53.20
2016-10-21T07:09:11.698Z,53.70
2016-10-21T07:10:12.631Z,55.20
2016-10-21T07:11:12.596Z,56.60
2016-10-21T07:12:13.637Z,56.70
2016-10-21T07:13:12.628Z,56.50
2016-10-21T07:14:10.660Z,is
2016-10-21T07:15:11.849Z,56.20
2016-10-21T07:16:12.659Z,56.10
2016-10-21T07:17:12.071Z,55.90
2016-10-21T07:18:12.001Z,55.70
2016-10-21T07:19:11.972Z,55.90
2016-10-21T07:20:12.621Z,55.80
2016-10-21T07:21:12.230Z,55.70
2016-10-21T07:22:12.440Z,55.60
2016-10-21T07:23:12.018Z,55.60
2016-10-21T07:24:11.162Z,is
2016-10-21T07:25:18.264Z,55.50
2016-10-21T07:26:09.926Z,is
2016-10-21T07:27:12.057Z,55.60
2016-10-21T07:28:12.823Z,55.60
2016-10-21T07:29:12.296Z,55.40
2016-10-21T07:30:11.363Z,is
2016-10-21T07:31:11.637Z,55.40
2016-10-21T07:32:11.712Z,55.40
2016-10-21T07:33:11.765Z,55.40
2016-10-21T07:34:12.380Z,55.40
2016-10-21T07:35:13.549Z,55.30
2016-10-21T07:36:12.422Z,55.30
2016-10-21T07:37:12.355Z,55.30
2016-10-21T07:38:12.099Z,55.30
2016-10-21T07:39:12.769Z,55.30
2016-10-21T07:40:11.670Z,55.20
2016-10-21T07:41:12.336Z,55.20
2016-10-21T07:42:11.459Z,55.10
2016-10-21T07:43:13.118Z,54.20
2016-10-21T07:44:12.808Z,55.00
2016-10-21T07:45:11.781Z,54.30
2016-10-21T07:46:11.910Z,54.90
2016-10-21T07:47:10.435Z,is
2016-10-21T07:48:12.907Z,55.00
2016-10-21T07:49:13.772Z,54.40
2016-10-21T07:50:10.320Z,is
2016-10-21T07:51:11.438Z,54.90
2016-10-21T07:52:12.143Z,54.90
2016-10-21T07:53:13.051Z,54.90
2016-10-21T07:54:12.655Z,55.10
2016-10-21T07:55:12.640Z,54.90
2016-10-21T07:56:11.657Z,54.70
2016-10-21T07:57:11.543Z,54.90
2016-10-21T07:58:12.022Z,54.70
2016-10-21T07:59:12.818Z,54.90
2016-10-21T08:00:11.759Z,54.70
2016-10-21T08:01:12.563Z,54.90
2016-10-21T08:02:13.243Z,54.70
2016-10-21T08:03:12.399Z,54.80
2016-10-21T08:04:10.381Z,is
2016-10-21T08:05:12.127Z,54.90
2016-10-21T08:06:13.984Z,54.90
2016-10-21T08:07:12.143Z,54.80
2016-10-21T08:08:12.223Z,55.00
2016-10-21T08:09:13.099Z,54.90
2016-10-21T08:10:12.844Z,55.00
2016-10-21T08:11:12.956Z,54.90
2016-10-21T08:12:12.052Z,54.90
2016-10-21T08:13:13.039Z,55.00
2016-10-21T08:14:13.876Z,55.00
2016-10-21T08:15:12.885Z,55.00
2016-10-21T08:16:12.379Z,55.00
2016-10-21T08:17:12.608Z,55.00
2016-10-21T08:18:12.198Z,55.00
2016-10-21T08:19:13.540Z,55.00
2016-10-21T08:20:12.194Z,55.00
2016-10-21T08:21:13.919Z,55.00
2016-10-21T08:22:17.069Z,54.90
2016-10-21T08:23:12.926Z,55.00
2016-10-21T08:24:12.627Z,55.00
2016-10-21T08:25:12.748Z,54.90
2016-10-21T08:26:11.769Z,55.00
2016-10-21T08:27:10.209Z,is
2016-10-21T08:28:13.032Z,55.40
2016-10-21T08:29:11.961Z,55.30
2016-10-21T08:30:12.852Z,55.50
2016-10-21T08:31:10.506Z,is
2016-10-21T08:32:11.510Z,55.50
2016-10-21T08:33:13.052Z,55.50
2016-10-21T08:34:12.830Z,55.50
2016-10-21T08:35:12.348Z,55.40
2016-10-21T08:36:11.785Z,55.30
2016-10-21T08:37:09.944Z,is
2016-10-21T08:38:12.998Z,55.40
2016-10-21T08:39:13.053Z,55.50
2016-10-21T08:40:13.028Z,55.50
2016-10-21T08:41:12.029Z,55.40
2016-10-21T08:42:13.030Z,55.40
2016-10-21T08:43:10.520Z,is
2016-10-21T08:44:11.688Z,55.50
2016-10-21T08:45:12.250Z,55.50
2016-10-21T08:46:12.232Z,55.50
2016-10-21T08:47:12.299Z,55.50
2016-10-21T08:48:12.818Z,55.40
2016-10-21T08:49:12.334Z,55.50
2016-10-21T08:50:13.296Z,55.30
2016-10-21T08:51:13.028Z,55.40
2016-10-21T08:52:12.768Z,55.50
2016-10-21T08:53:11.551Z,55.30
2016-10-21T08:54:11.951Z,55.50
2016-10-21T08:55:11.803Z,55.30
2016-10-21T08:56:11.850Z,55.20
2016-10-21T08:57:12.016Z,55.20
2016-10-21T08:58:12.149Z,55.30
2016-10-21T08:59:12.178Z,55.30
2016-10-21T09:00:11.254Z,is
2016-10-21T09:01:10.124Z,is
2016-10-21T09:02:12.386Z,55.20
2016-10-21T09:03:11.376Z,55.20
2016-10-21T09:04:11.346Z,55.20
2016-10-21T09:05:12.659Z,55.20
2016-10-21T09:06:12.257Z,55.20
2016-10-21T09:07:13.048Z,55.30
2016-10-21T09:08:12.190Z,55.10
2016-10-21T09:09:12.949Z,55.30
2016-10-21T09:10:11.925Z,55.20
2016-10-21T09:11:12.385Z,55.10
2016-10-21T09:12:12.186Z,55.10
2016-10-21T09:13:12.134Z,55.10
2016-10-21T09:14:12.789Z,55.10
2016-10-21T09:15:12.633Z,55.10
2016-10-21T09:16:12.370Z,55.00
2016-10-21T09:17:12.241Z,55.10
2016-10-21T09:18:12.339Z,54.50
2016-10-21T09:19:12.083Z,53.20
2016-10-21T09:20:12.640Z,53.90
2016-10-21T09:21:11.681Z,54.30
2016-10-21T09:22:13.305Z,54.00
2016-10-21T09:23:13.109Z,54.10
2016-10-21T09:24:13.765Z,54.40
2016-10-21T09:25:11.009Z,is
2016-10-21T09:26:12.342Z,52.90
2016-10-21T09:27:11.799Z,52.30
2016-10-21T09:28:12.323Z,53.60
2016-10-21T09:29:11.483Z,53.00
2016-10-21T09:30:14.272Z,53.00
2016-10-21T09:31:12.804Z,53.00
2016-10-21T09:32:12.631Z,54.20
2016-10-21T09:33:12.394Z,52.50
2016-10-21T09:34:11.460Z,53.00
2016-10-21T09:35:11.766Z,52.60
2016-10-21T09:36:11.762Z,52.60
2016-10-21T09:37:12.160Z,52.50
2016-10-21T09:38:12.158Z,52.90
2016-10-21T09:39:12.505Z,52.60
2016-10-21T09:40:11.532Z,52.90
2016-10-21T09:41:12.293Z,53.40
2016-10-21T09:42:12.988Z,52.60
2016-10-21T09:43:12.627Z,52.20
2016-10-21T09:44:12.449Z,52.60
2016-10-21T09:45:11.548Z,52.70
2016-10-21T09:46:13.455Z,52.30
2016-10-21T09:47:13.081Z,53.70
2016-10-21T09:48:12.031Z,53.20
2016-10-21T09:49:11.901Z,53.20
2016-10-21T09:50:11.938Z,52.90
2016-10-21T09:51:13.390Z,54.70
2016-10-21T09:52:11.354Z,54.70
2016-10-21T09:53:12.282Z,54.80
2016-10-21T09:54:12.807Z,54.80
2016-10-21T09:55:12.549Z,54.70
2016-10-21T09:56:12.453Z,54.80
2016-10-21T09:57:12.240Z,54.70
2016-10-21T09:58:17.995Z,54.50
2016-10-21T09:59:12.629Z,54.50
2016-10-21T10:00:13.403Z,54.30
2016-10-21T10:01:12.191Z,54.40
2016-10-21T10:02:12.278Z,54.40
2016-10-21T10:03:13.001Z,54.50
2016-10-21T10:04:12.066Z,54.50
2016-10-21T10:05:13.860Z,54.90
2016-10-21T10:06:12.628Z,54.80
2016-10-21T10:07:13.250Z,54.50
2016-10-21T10:08:13.795Z,54.60
2016-10-21T10:09:11.783Z,54.60
2016-10-21T10:10:11.885Z,54.50
2016-10-21T10:11:12.462Z,54.80
2016-10-21T10:12:12.017Z,54.80
2016-10-21T10:13:12.040Z,54.80
2016-10-21T10:14:12.632Z,54.90
2016-10-21T10:15:13.262Z,54.90
2016-10-21T10:16:12.286Z,54.90
2016-10-21T10:17:10.189Z,is
2016-10-21T10:18:11.496Z,55.00
2016-10-21T10:19:11.531Z,54.90
2016-10-21T10:20:09.551Z,is
2016-10-21T10:21:12.013Z,55.00
2016-10-21T10:22:13.758Z,55.00
2016-10-21T10:23:12.776Z,55.00
2016-10-21T10:24:11.729Z,55.30
2016-10-21T10:25:10.878Z,is
2016-10-21T10:26:12.678Z,55.30
2016-10-21T10:27:12.523Z,55.20
2016-10-21T10:28:09.430Z,is
2016-10-21T10:29:12.446Z,55.10
2016-10-21T10:30:11.832Z,55.10
2016-10-21T10:31:12.460Z,55.10
2016-10-21T10:32:11.930Z,55.10
2016-10-21T10:33:10.807Z,is
2016-10-21T10:34:09.907Z,is
2016-10-21T10:35:11.902Z,55.50
2016-10-21T10:36:12.471Z,55.70
2016-10-21T10:37:12.182Z,55.80
2016-10-21T10:38:12.175Z,55.40
2016-10-21T10:39:10.667Z,is
2016-10-21T10:40:14.109Z,55.50
2016-10-21T10:41:12.432Z,55.40
2016-10-21T10:42:11.471Z,55.60
2016-10-21T10:43:11.599Z,55.50
2016-10-21T10:44:12.329Z,55.50
2016-10-21T10:45:12.383Z,55.60
2016-10-21T10:46:11.589Z,55.50
2016-10-21T10:47:12.297Z,55.50
2016-10-21T10:48:14.841Z,55.60
2016-10-21T10:49:12.045Z,55.50
2016-10-21T10:50:12.618Z,55.50
2016-10-21T10:51:14.460Z,55.40
2016-10-21T10:52:11.511Z,55.50
2016-10-21T10:53:12.288Z,55.50
2016-10-21T10:54:12.198Z,55.50
2016-10-21T10:55:13.062Z,55.50
2016-10-21T10:56:12.999Z,55.50
2016-10-21T10:57:10.527Z,is
2016-10-21T10:58:12.329Z,55.50
2016-10-21T10:59:10.153Z,is
2016-10-21T11:00:13.405Z,55.30
2016-10-21T11:01:12.009Z,55.30
2016-10-21T11:02:11.934Z,55.10
2016-10-21T11:03:11.908Z,55.10
2016-10-21T11:04:12.608Z,55.10
2016-10-21T11:05:11.525Z,55.10
2016-10-21T11:06:11.508Z,55.10
2016-10-21T11:07:10.319Z,is
2016-10-21T11:08:11.369Z,55.10
2016-10-21T11:09:11.855Z,55.20
2016-10-21T11:10:13.069Z,55.10
2016-10-21T11:11:12.810Z,55.20
2016-10-21T11:12:11.785Z,55.00
2016-10-21T11:13:11.715Z,55.10
2016-10-21T11:14:13.397Z,55.20
2016-10-21T11:15:11.447Z,55.10
2016-10-21T11:16:17.720Z,55.20
2016-10-21T11:17:09.834Z,is
2016-10-21T11:18:12.631Z,55.20
2016-10-21T11:19:12.246Z,55.20
2016-10-21T11:20:13.569Z,55.20
2016-10-21T11:21:11.866Z,55.10
2016-10-21T11:22:12.901Z,55.70
2016-10-21T11:23:11.875Z,55.10
2016-10-21T11:24:12.648Z,55.20
2016-10-21T11:25:12.743Z,55.20
2016-10-21T11:26:11.787Z,55.20
2016-10-21T11:27:12.359Z,55.20
2016-10-21T11:28:12.997Z,55.30
2016-10-21T11:29:13.506Z,55.20
2016-10-21T11:30:12.111Z,55.10
2016-10-21T11:31:12.127Z,55.10
2016-10-21T11:32:12.636Z,55.20
2016-10-21T11:33:12.472Z,55.30
2016-10-21T11:34:11.507Z,55.10
2016-10-21T11:35:12.050Z,55.20
2016-10-21T11:36:12.091Z,55.20
2016-10-21T11:37:12.738Z,55.30
2016-10-21T11:38:12.304Z,55.40
2016-10-21T11:39:11.888Z,55.30
2016-10-21T11:40:11.899Z,55.20
2016-10-21T11:41:12.282Z,55.20
2016-10-21T11:42:12.978Z,55.40
2016-10-21T11:43:15.635Z,55.20
2016-10-21T11:44:13.847Z,55.30
2016-10-21T11:45:13.592Z,55.30
2016-10-21T11:46:12.240Z,55.30
2016-10-21T11:47:12.301Z,55.30
2016-10-21T11:48:13.027Z,55.30
2016-10-21T11:49:12.513Z,55.30
2016-10-21T11:50:13.960Z,55.30
2016-10-21T11:51:15.540Z,55.30
2016-10-21T11:52:11.480Z,is
2016-10-21T11:53:12.560Z,55.30
2016-10-21T11:54:10.456Z,is
2016-10-21T11:55:11.598Z,55.20
2016-10-21T11:56:09.523Z,is
2016-10-21T11:57:12.280Z,55.30
2016-10-21T11:58:13.096Z,55.40
2016-10-21T11:59:12.009Z,55.30
2016-10-21T12:00:12.636Z,55.40
2016-10-21T12:01:11.616Z,55.30
2016-10-21T12:02:12.422Z,55.50
2016-10-21T12:03:12.363Z,55.40
2016-10-21T12:04:11.397Z,55.40
2016-10-21T12:05:12.670Z,55.30
2016-10-21T12:06:11.558Z,55.30
2016-10-21T12:07:09.465Z,is
2016-10-21T12:08:12.612Z,55.50
2016-10-21T12:09:12.308Z,55.50
2016-10-21T12:10:12.959Z,55.50
2016-10-21T12:11:13.690Z,55.50
2016-10-21T12:12:11.735Z,55.50
2016-10-21T12:13:11.764Z,55.50
2016-10-21T12:14:13.731Z,55.50
2016-10-21T12:15:11.693Z,55.50
2016-10-21T12:16:12.435Z,55.60
2016-10-21T12:17:11.524Z,55.50
2016-10-21T12:18:11.565Z,55.50
2016-10-21T12:19:11.717Z,55.50
2016-10-21T12:20:12.643Z,55.60
2016-10-21T12:21:14.452Z,55.50
2016-10-21T12:22:11.728Z,55.50
2016-10-21T12:23:12.628Z,55.60
2016-10-21T12:24:11.791Z,55.50
2016-10-21T12:25:13.646Z,55.70
2016-10-21T12:26:10.031Z,is
2016-10-21T12:27:14.898Z,55.70
2016-10-21T12:28:11.875Z,55.60
2016-10-21T12:29:12.671Z,55.70
2016-10-21T12:30:12.146Z,55.70
2016-10-21T12:31:12.630Z,55.70
2016-10-21T12:32:11.672Z,55.60
2016-10-21T12:33:12.399Z,55.60
2016-10-21T12:34:12.018Z,55.60
2016-10-21T12:35:12.975Z,55.80
2016-10-21T12:36:11.848Z,55.70
2016-10-21T12:37:11.776Z,55.80
2016-10-21T12:38:11.798Z,55.70
2016-10-21T12:39:12.630Z,55.70
2016-10-21T12:40:11.597Z,55.80
2016-10-21T12:41:11.508Z,55.70
2016-10-21T12:42:12.050Z,55.80
2016-10-21T12:43:12.027Z,55.70
2016-10-21T12:44:12.165Z,55.80
2016-10-21T12:45:12.938Z,55.90
2016-10-21T12:46:13.736Z,55.10
2016-10-21T12:47:11.540Z,55.70
2016-10-21T12:48:11.553Z,55.80
2016-10-21T12:49:11.462Z,55.80
2016-10-21T12:50:11.533Z,55.80
2016-10-21T12:51:12.096Z,55.90
2016-10-21T12:52:12.830Z,55.80
2016-10-21T12:53:13.403Z,55.90
2016-10-21T12:54:11.439Z,55.80
2016-10-21T12:55:12.069Z,55.80
2016-10-21T12:56:11.911Z,55.80
2016-10-21T12:57:12.342Z,55.80
2016-10-21T12:58:11.394Z,55.70